Time;durP1;ratioP1;P1;durP2;ratioP2;P2;SDS_P1;SDS_P2;PMS_P1;PMS_P2;Temp;Humidity;BMP_temperature;BMP_pressure;BME280_temperature;BME280_humidity;BME280_pressure;Samples;Min_cycle;Max_cycle;Signal;HPM_P1;HPM_P2
2022/04/12 00:00:05;;;;;;;1.90;1.67;;;18.60;47.50;19.80;100390.00;;;;5050709;28;20198;-51
2022/04/12 00:02:31;;;;;;;2.03;1.90;;;18.60;47.60;19.80;100396.00;;;;5050913;28;20293;-52
2022/04/12 00:04:56;;;;;;;1.90;1.80;;;18.50;47.50;19.70;100395.00;;;;5050043;28;20257;-53
2022/04/12 00:07:22;;;;;;;1.93;1.80;;;18.50;47.60;19.70;100388.00;;;;5050477;28;20198;-51
2022/04/12 00:09:48;;;;;;;2.10;1.90;;;18.60;47.70;19.70;100392.00;;;;5050083;28;20186;-51
2022/04/12 00:12:15;;;;;;;1.90;1.80;;;18.50;47.60;19.70;100388.00;;;;5050486;28;20166;-52
2022/04/12 00:14:42;;;;;;;1.80;1.70;;;18.50;47.60;19.70;100389.00;;;;5050762;28;20196;-51
2022/04/12 00:19:52;;;;;;;1.90;1.80;;;18.50;47.70;19.70;100389.00;;;;5050752;28;20188;-51
2022/04/12 00:22:18;;;;;;;2.80;1.90;;;18.40;47.60;19.60;100384.00;;;;5050589;28;20556;-51
2022/04/12 00:24:44;;;;;;;2.30;1.47;;;18.40;47.70;19.60;100382.00;;;;5052383;28;20185;-51
2022/04/12 00:27:09;;;;;;;2.33;2.00;;;18.40;47.60;19.60;100378.00;;;;5064100;28;20209;-51
2022/04/12 00:29:35;;;;;;;1.80;1.70;;;18.40;47.60;19.60;100366.00;;;;5063622;28;20174;-51
2022/04/12 00:32:01;;;;;;;1.80;1.70;;;18.40;47.70;19.60;100370.00;;;;5052584;28;20202;-51
2022/04/12 00:34:27;;;;;;;1.87;1.77;;;18.40;47.80;19.50;100323.00;;;;5050479;28;20245;-51
2022/04/12 00:36:52;;;;;;;1.90;1.70;;;18.40;47.70;19.50;100360.00;;;;5049743;28;20230;-50
2022/04/12 00:39:18;;;;;;;1.90;1.80;;;18.40;47.80;19.50;100360.00;;;;5050341;28;20178;-51
2022/04/12 00:41:44;;;;;;;1.80;1.70;;;18.40;47.70;19.50;100368.00;;;;5050631;28;20209;-51
2022/04/12 00:44:09;;;;;;;1.97;1.80;;;18.40;47.80;19.50;100362.00;;;;5050237;28;20665;-52
2022/04/12 00:46:35;;;;;;;1.83;1.63;;;18.30;47.80;19.50;100367.00;;;;5049841;28;20601;-53
2022/04/12 00:49:01;;;;;;;2.20;2.00;;;18.30;47.80;19.50;100368.00;;;;5050130;28;20194;-52
2022/04/12 00:51:28;;;;;;;1.70;1.60;;;18.30;47.90;19.50;100366.00;;;;5049973;28;20193;-51
2022/04/12 00:53:54;;;;;;;1.90;1.80;;;18.30;47.80;19.50;100350.00;;;;5050160;28;20523;-52
2022/04/12 00:56:19;;;;;;;2.00;1.80;;;18.30;47.90;19.40;100351.00;;;;5049591;28;20177;-51
2022/04/12 00:58:49;;;;;;;1.70;1.60;;;18.30;47.90;19.40;100360.00;;;;5048852;28;20185;-51
2022/04/12 01:01:15;;;;;;;1.97;1.83;;;18.30;47.90;19.40;100362.00;;;;5047425;28;20607;-51
2022/04/12 01:03:40;;;;;;;1.77;1.67;;;18.30;47.90;19.40;100359.00;;;;5048318;28;20174;-52
2022/04/12 01:06:06;;;;;;;2.00;1.83;;;18.20;47.70;19.40;100361.00;;;;5049259;28;20181;-51
2022/04/12 01:08:32;;;;;;;1.90;1.73;;;18.20;47.80;19.40;100364.00;;;;5047725;28;20619;-51
2022/04/12 01:11:04;;;;;;;1.80;1.70;;;18.20;47.80;19.40;100363.00;;;;5047998;28;20186;-51
2022/04/12 01:13:29;;;;;;;2.00;1.80;;;18.20;47.90;19.40;100370.00;;;;5048584;28;20186;-51
2022/04/12 01:15:55;;;;;;;1.80;1.70;;;18.20;47.90;19.40;100359.00;;;;5048767;28;20177;-52
2022/04/12 01:18:21;;;;;;;1.93;1.83;;;18.20;47.90;19.40;100363.00;;;;5049553;28;20178;-51
2022/04/12 01:20:46;;;;;;;1.90;1.80;;;18.20;47.90;19.40;100351.00;;;;5048865;28;20202;-52
2022/04/12 01:23:22;;;;;;;1.93;1.77;;;18.20;47.90;19.40;100347.00;;;;5048851;28;20662;-52
2022/04/12 01:25:48;;;;;;;1.70;1.60;;;18.20;47.90;19.40;100340.00;;;;5047215;28;20654;-53
2022/04/12 01:28:13;;;;;;;2.10;1.90;;;18.20;47.90;19.40;100325.00;;;;5031034;28;20228;-51
2022/04/12 01:30:39;;;;;;;1.77;1.67;;;18.20;48.00;19.40;100333.00;;;;5048842;28;20191;-51
2022/04/12 01:33:05;;;;;;;1.90;1.70;;;18.20;48.00;19.30;100342.00;;;;5049226;28;20674;-51
2022/04/12 01:35:31;;;;;;;1.67;1.57;;;18.10;47.90;19.30;100337.00;;;;5048940;28;20280;-51
2022/04/12 01:37:57;;;;;;;1.60;1.50;;;18.10;47.90;19.30;100339.00;;;;5048187;28;20201;-51
2022/04/12 01:40:23;;;;;;;1.80;1.60;;;18.10;47.90;19.30;100340.00;;;;5048832;28;20190;-51
2022/04/12 01:42:49;;;;;;;1.73;1.63;;;18.10;47.90;19.30;100338.00;;;;5048517;28;20341;-51
2022/04/12 01:45:14;;;;;;;1.70;1.60;;;18.10;47.90;19.30;100320.00;;;;5047116;28;20643;-50
2022/04/12 01:47:40;;;;;;;1.83;1.70;;;18.10;47.90;19.30;100319.00;;;;5048185;28;20204;-51
2022/04/12 01:50:06;;;;;;;1.90;1.80;;;18.10;47.90;19.30;100323.00;;;;5048129;28;20191;-52
2022/04/12 01:52:33;;;;;;;1.80;1.70;;;18.10;48.70;19.30;100317.00;;;;5048381;28;20166;-51
2022/04/12 01:54:59;;;;;;;1.60;1.50;;;18.10;48.20;19.30;100318.00;;;;5047049;28;20186;-51
2022/04/12 01:57:24;;;;;;;1.70;1.60;;;18.10;48.10;19.20;100320.00;;;;5048076;28;20239;-51
2022/04/12 01:59:50;;;;;;;1.60;1.50;;;18.00;48.10;19.20;100314.00;;;;5048043;28;20181;-51
2022/04/12 02:02:16;;;;;;;1.90;1.80;;;18.10;48.20;19.20;100314.00;;;;5048348;28;20181;-52
2022/04/12 02:04:42;;;;;;;1.70;1.60;;;18.00;48.10;19.20;100309.00;;;;5048719;28;20181;-51
2022/04/12 02:07:07;;;;;;;2.00;1.80;;;18.00;48.00;19.20;100319.00;;;;5047881;28;20687;-51
2022/04/12 02:09:33;;;;;;;1.80;1.70;;;18.00;48.20;19.20;100311.00;;;;5047951;28;20571;-52
2022/04/12 02:11:59;;;;;;;1.60;1.50;;;18.00;48.20;19.20;100316.00;;;;5047765;28;20201;-52
2022/04/12 02:14:25;;;;;;;1.60;1.50;;;18.00;48.20;19.20;100316.00;;;;5048422;28;20177;-52
2022/04/12 02:16:50;;;;;;;1.50;1.40;;;18.00;48.20;19.20;100310.00;;;;5047810;28;20180;-52
2022/04/12 02:19:16;;;;;;;1.80;1.70;;;18.00;48.10;19.20;100309.00;;;;5048150;28;20279;-52
2022/04/12 02:21:42;;;;;;;1.70;1.60;;;18.00;48.10;19.10;100310.00;;;;5048450;28;20547;-52
2022/04/12 02:24:07;;;;;;;1.90;1.80;;;18.00;48.10;19.10;100300.00;;;;5047613;28;20181;-52
2022/04/12 02:26:34;;;;;;;1.80;1.67;;;17.90;48.10;19.10;100301.00;;;;5051044;28;20175;-51
2022/04/12 02:28:59;;;;;;;1.90;1.80;;;17.90;48.10;19.10;100306.00;;;;5048069;28;20168;-51
2022/04/12 02:31:25;;;;;;;1.90;1.80;;;17.90;48.00;19.10;100304.00;;;;5047960;28;20276;-51
2022/04/12 02:33:51;;;;;;;1.70;1.60;;;17.90;48.10;19.10;100310.00;;;;5047610;28;20168;-53
2022/04/12 02:36:16;;;;;;;1.83;1.73;;;17.90;48.00;19.10;100299.00;;;;5047859;28;20167;-52
2022/04/12 02:38:42;;;;;;;1.70;1.60;;;17.90;48.10;19.10;100310.00;;;;5047742;28;20220;-52
2022/04/12 02:41:08;;;;;;;1.80;1.70;;;17.90;48.10;19.10;100294.00;;;;5047793;28;20208;-51
2022/04/12 02:43:34;;;;;;;1.70;1.60;;;17.90;48.10;19.10;100301.00;;;;5047470;28;20174;-53
2022/04/12 02:46:01;;;;;;;1.80;1.70;;;17.90;48.10;19.10;100309.00;;;;5047526;28;20649;-51
2022/04/12 02:48:27;;;;;;;1.70;1.60;;;17.90;48.20;19.00;100306.00;;;;5047470;28;20279;-51
2022/04/12 02:50:53;;;;;;;1.70;1.60;;;17.90;48.20;19.00;100305.00;;;;5047129;28;20500;-50
2022/04/12 02:53:19;;;;;;;1.73;1.60;;;17.90;48.20;19.00;100302.00;;;;5046855;28;20174;-51
2022/04/12 02:55:44;;;;;;;1.57;1.47;;;17.80;48.10;19.00;100299.00;;;;5047056;28;20212;-51
2022/04/12 02:58:10;;;;;;;1.70;1.60;;;17.90;48.20;19.00;100299.00;;;;5047060;28;20178;-51
2022/04/12 03:00:36;;;;;;;1.87;1.70;;;17.90;48.20;19.00;100301.00;;;;5049960;28;20208;-52
2022/04/12 03:03:02;;;;;;;1.67;1.57;;;17.80;48.20;19.00;100293.00;;;;5051308;28;20174;-52
2022/04/12 03:05:27;;;;;;;1.87;1.70;;;17.80;48.10;19.00;100300.00;;;;5051406;28;20201;-52
2022/04/12 03:07:53;;;;;;;1.77;1.67;;;17.80;48.20;19.00;100304.00;;;;5051155;28;20718;-52
2022/04/12 03:10:19;;;;;;;1.80;1.70;;;17.80;48.20;19.00;100293.00;;;;5051303;28;20192;-52
2022/04/12 03:12:44;;;;;;;1.97;1.77;;;17.80;48.20;18.90;100286.00;;;;5051380;28;20184;-52
2022/04/12 03:15:10;;;;;;;1.73;1.63;;;17.80;48.30;18.90;100282.00;;;;5052716;28;20171;-51
2022/04/12 03:17:36;;;;;;;1.60;1.50;;;17.80;48.30;18.90;100292.00;;;;5064289;28;20158;-53
2022/04/12 03:20:03;;;;;;;1.70;1.60;;;17.80;48.30;18.90;100294.00;;;;5065591;28;20186;-52
2022/04/12 03:22:28;;;;;;;1.77;1.67;;;17.70;48.10;18.90;100297.00;;;;5055068;28;20222;-52
2022/04/12 03:24:55;;;;;;;1.70;1.60;;;17.70;48.20;18.90;100287.00;;;;5051915;28;20182;-50
2022/04/12 03:27:20;;;;;;;1.77;1.67;;;17.70;48.30;18.90;100287.00;;;;5051263;28;20204;-53
2022/04/12 03:29:46;;;;;;;1.70;1.60;;;17.70;48.30;18.90;100293.00;;;;5050801;28;20203;-51
2022/04/12 03:32:12;;;;;;;6.33;2.00;;;17.70;48.30;18.90;100300.00;;;;5057563;28;20188;-51
2022/04/12 03:34:39;;;;;;;2.30;1.63;;;17.70;48.30;18.90;100298.00;;;;5053014;28;20650;-50
2022/04/12 03:37:05;;;;;;;1.80;1.70;;;17.70;48.30;18.90;100288.00;;;;5049441;28;20231;-51
2022/04/12 03:39:31;;;;;;;2.07;1.50;;;17.70;48.30;18.80;100286.00;;;;5049921;28;20178;-52
2022/04/12 03:41:56;;;;;;;3.00;1.90;;;17.70;48.10;18.90;100291.00;;;;5049710;28;20239;-50
2022/04/12 03:44:22;;;;;;;3.30;1.80;;;17.70;48.00;18.90;100301.00;;;;5049626;28;20180;-51
2022/04/12 03:46:48;;;;;;;2.70;1.70;;;17.70;48.00;18.80;100292.00;;;;5066826;28;20217;-52
2022/04/12 03:49:13;;;;;;;2.07;1.70;;;17.70;48.20;18.80;100271.00;;;;5069506;28;20166;-51
2022/04/12 03:51:39;;;;;;;1.90;1.80;;;17.70;48.00;18.80;100263.00;;;;5070643;28;20287;-52
2022/04/12 03:54:05;;;;;;;2.57;1.90;;;17.60;47.90;18.80;100272.00;;;;5068678;28;20665;-52
2022/04/12 03:56:31;;;;;;;1.83;1.73;;;17.60;47.90;18.80;100260.00;;;;5068872;28;20169;-51
2022/04/12 03:58:58;;;;;;;2.10;1.90;;;17.60;47.80;18.80;100249.00;;;;5069185;28;20179;-51
2022/04/12 04:01:28;;;;;;;2.57;2.20;;;17.60;47.70;18.80;100259.00;;;;5068694;28;20256;-50
2022/04/12 04:03:55;;;;;;;3.77;2.20;;;17.60;47.60;18.70;100248.00;;;;5068706;28;20154;-50
2022/04/12 04:06:21;;;;;;;2.10;1.90;;;17.60;47.50;18.70;100243.00;;;;5068303;28;20606;-51
2022/04/12 04:08:47;;;;;;;3.33;2.10;;;17.60;47.40;18.70;100248.00;;;;5069238;28;20191;-51
2022/04/12 04:11:12;;;;;;;3.93;2.20;;;17.60;47.30;18.70;100253.00;;;;5068836;28;20202;-52
2022/04/12 04:13:38;;;;;;;2.20;2.00;;;17.60;47.30;18.70;100253.00;;;;5069239;28;20180;-51
2022/04/12 04:16:05;;;;;;;2.40;2.20;;;17.60;47.20;18.70;100253.00;;;;5068409;28;20233;-50
2022/04/12 04:18:32;;;;;;;2.70;1.87;;;17.50;47.10;18.70;100262.00;;;;5067482;28;20191;-51
2022/04/12 04:20:57;;;;;;;2.27;2.07;;;17.60;47.20;18.70;100248.00;;;;5068524;28;20200;-51
2022/04/12 04:23:23;;;;;;;2.10;1.90;;;17.50;47.10;18.70;100261.00;;;;5070076;28;20591;-50
2022/04/12 04:25:49;;;;;;;2.43;1.90;;;17.50;47.20;18.60;100262.00;;;;5068259;28;20253;-52
2022/04/12 04:28:21;;;;;;;2.00;1.80;;;17.50;47.10;18.70;100276.00;;;;5067800;28;20334;-51
2022/04/12 04:30:49;;;;;;;2.00;1.80;;;17.50;47.10;18.60;100264.00;;;;5068419;28;20195;-51
2022/04/12 04:33:18;;;;;;;2.40;1.97;;;17.50;47.10;18.60;100259.00;;;;5067084;28;20469;-52
2022/04/12 04:35:47;;;;;;;3.13;1.90;;;17.50;47.20;18.60;100270.00;;;;5068038;28;20169;-51
2022/04/12 04:38:13;;;;;;;3.80;2.20;;;17.50;47.20;18.60;100273.00;;;;5067033;28;20234;-52
2022/04/12 04:40:39;;;;;;;2.40;1.90;;;17.50;47.30;18.60;100279.00;;;;5068248;28;20671;-52
2022/04/12 04:43:05;;;;;;;7.00;2.10;;;17.50;47.30;18.60;100267.00;;;;5067700;28;20211;-50
2022/04/12 04:45:31;;;;;;;2.87;1.93;;;17.40;47.30;18.60;100283.00;;;;5067544;28;20193;-51
2022/04/12 04:48:01;;;;;;;6.47;2.30;;;17.50;47.50;18.60;100284.00;;;;5067498;28;20293;-51
2022/04/12 04:50:31;;;;;;;4.87;2.10;;;17.40;47.40;18.60;100284.00;;;;5066904;28;20544;-50
2022/04/12 04:52:58;;;;;;;3.40;2.10;;;17.40;47.50;18.60;100287.00;;;;5067596;28;20185;-50
2022/04/12 04:55:24;;;;;;;3.23;2.07;;;17.40;47.50;18.60;100289.00;;;;5067824;28;20245;-52
2022/04/12 04:57:54;;;;;;;6.07;2.20;;;17.40;47.40;18.60;100294.00;;;;5067606;28;20324;-51
2022/04/12 05:00:19;;;;;;;2.77;1.90;;;17.40;47.50;18.50;100296.00;;;;5067449;28;20800;-51
2022/04/12 05:02:49;;;;;;;5.33;2.30;;;17.40;47.50;18.50;100226.00;;;;5067810;28;20181;-51
2022/04/12 05:05:15;;;;;;;3.97;2.10;;;17.40;47.50;18.50;100289.00;;;;5067580;28;20163;-51
2022/04/12 05:07:47;;;;;;;5.97;2.10;;;17.40;47.40;18.50;100305.00;;;;5067355;28;20198;-50
2022/04/12 05:10:16;;;;;;;4.77;2.17;;;17.40;47.50;18.50;100305.00;;;;5067978;28;20220;-52
2022/04/12 05:12:42;;;;;;;3.13;1.93;;;17.40;47.50;18.50;100308.00;;;;5066556;28;20216;-52
2022/04/12 05:15:08;;;;;;;4.10;2.13;;;17.40;47.50;18.50;100312.00;;;;5067520;28;20192;-51
2022/04/12 05:17:33;;;;;;;5.63;2.30;;;17.30;47.50;18.50;100309.00;;;;5067397;28;20710;-51
2022/04/12 05:19:59;;;;;;;3.63;2.20;;;17.30;47.50;18.50;100311.00;;;;5067110;28;20223;-50
2022/04/12 05:22:25;;;;;;;3.50;1.83;;;17.30;47.50;18.50;100295.00;;;;5066869;28;20186;-51
2022/04/12 05:24:51;;;;;;;3.73;2.27;;;17.30;47.60;18.50;100302.00;;;;5066921;28;20174;-52
2022/04/12 05:27:18;;;;;;;3.43;1.90;;;17.30;47.70;18.50;100303.00;;;;5067315;28;20758;-50
2022/04/12 05:29:43;;;;;;;2.83;2.00;;;17.30;47.60;18.50;100309.00;;;;5067400;28;20189;-50
2022/04/12 05:32:10;;;;;;;3.97;1.93;;;17.30;47.70;18.40;100295.00;;;;5067157;28;20262;-52
2022/04/12 05:34:39;;;;;;;4.33;1.90;;;17.30;47.80;18.50;100295.00;;;;5067173;28;20265;-52
2022/04/12 05:37:05;;;;;;;3.83;2.13;;;17.30;47.80;18.50;100291.00;;;;5067274;28;20643;-51
2022/04/12 05:39:31;;;;;;;3.33;2.10;;;17.30;47.90;18.40;100293.00;;;;5067351;28;20173;-51
2022/04/12 05:42:00;;;;;;;2.30;1.90;;;17.20;47.80;18.40;100294.00;;;;5067415;28;20199;-51
2022/04/12 05:44:27;;;;;;;2.10;1.90;;;17.30;48.00;18.40;100292.00;;;;5067295;28;20632;-52
2022/04/12 05:46:53;;;;;;;2.10;1.90;;;17.30;47.90;18.40;100290.00;;;;5067092;28;20228;-50
2022/04/12 05:49:18;;;;;;;2.53;1.80;;;17.30;48.00;18.40;100292.00;;;;5067698;28;20657;-51
2022/04/12 05:51:44;;;;;;;2.83;2.00;;;17.20;47.90;18.40;100301.00;;;;5067465;28;20193;-51
2022/04/12 05:54:10;;;;;;;3.53;2.07;;;17.20;47.90;18.40;100298.00;;;;5066828;28;20182;-52
2022/04/12 05:56:36;;;;;;;2.97;1.90;;;17.20;47.90;18.40;100297.00;;;;5067193;28;20589;-51
2022/04/12 05:59:01;;;;;;;2.37;1.90;;;17.20;47.90;18.40;100308.00;;;;5066824;28;20169;-52
2022/04/12 06:01:27;;;;;;;2.30;2.03;;;17.20;47.90;18.40;100300.00;;;;5066967;28;20214;-50
2022/04/12 06:03:53;;;;;;;4.03;1.90;;;17.20;47.90;18.40;100301.00;;;;5066975;28;20181;-51
2022/04/12 06:06:18;;;;;;;2.73;2.00;;;17.20;47.90;18.40;100259.00;;;;5066885;28;20177;-51
2022/04/12 06:08:44;;;;;;;3.47;1.80;;;17.20;47.90;18.30;100307.00;;;;5066921;28;20212;-50
2022/04/12 06:11:10;;;;;;;1.90;1.80;;;17.20;47.90;18.30;100317.00;;;;5066930;28;20780;-51
2022/04/12 06:13:35;;;;;;;3.67;2.13;;;17.20;47.90;18.30;100309.00;;;;5066670;28;20170;-51
2022/04/12 06:16:01;;;;;;;1.70;1.60;;;17.20;47.90;18.30;100333.00;;;;5066508;28;20174;-53
2022/04/12 06:18:27;;;;;;;2.50;1.77;;;17.20;47.90;18.30;100318.00;;;;5067114;28;20170;-51
2022/04/12 06:20:52;;;;;;;3.30;1.90;;;17.20;47.90;18.30;100323.00;;;;5066813;28;20327;-51
2022/04/12 06:23:19;;;;;;;2.07;1.80;;;17.20;47.90;18.30;100323.00;;;;5066952;28;20810;-52
2022/04/12 06:25:44;;;;;;;2.30;1.87;;;17.20;47.90;18.30;100318.00;;;;5066924;28;20181;-51
2022/04/12 06:28:10;;;;;;;2.67;1.70;;;17.20;47.90;18.30;100323.00;;;;5066596;28;20201;-52
2022/04/12 06:30:36;;;;;;;1.97;1.87;;;17.10;47.80;18.30;100320.00;;;;5066790;28;20662;-51
2022/04/12 06:33:01;;;;;;;2.00;1.80;;;17.10;47.80;18.30;100315.00;;;;5066958;28;20154;-52
2022/04/12 06:35:27;;;;;;;2.00;1.80;;;17.10;47.80;18.30;100319.00;;;;5069226;28;20220;-51
2022/04/12 06:37:59;;;;;;;2.90;1.90;;;17.10;47.80;18.30;100319.00;;;;5071159;28;20656;-51
2022/04/12 06:40:25;;;;;;;2.20;1.90;;;17.10;47.80;18.30;100330.00;;;;5070587;28;20221;-52
2022/04/12 06:42:51;;;;;;;2.13;1.80;;;17.10;47.90;18.30;100316.00;;;;5070742;28;20205;-51
2022/04/12 06:45:17;;;;;;;2.17;1.90;;;17.10;47.90;18.30;100330.00;;;;5070054;28;20223;-51
2022/04/12 06:47:43;;;;;;;1.93;1.73;;;17.10;47.80;18.30;100303.00;;;;5070086;28;20721;-51
2022/04/12 06:50:10;;;;;;;1.90;1.70;;;17.10;47.80;18.10;100302.00;;;;5070737;28;20198;-53
2022/04/12 06:52:36;;;;;;;1.73;1.63;;;17.10;48.10;18.30;100304.00;;;;5070342;28;20169;-51
2022/04/12 06:55:02;;;;;;;2.03;1.80;;;17.10;48.10;18.20;100314.00;;;;5070390;28;20175;-52
2022/04/12 06:57:34;;;;;;;1.70;1.60;;;17.10;47.90;18.30;100312.00;;;;5070544;28;20174;-52
2022/04/12 07:00:00;;;;;;;2.37;1.80;;;17.10;47.80;18.20;100324.00;;;;5070486;28;20244;-52
2022/04/12 07:02:26;;;;;;;2.27;2.00;;;17.10;47.80;18.20;100319.00;;;;5070586;28;20711;-51
2022/04/12 07:04:52;;;;;;;2.10;1.90;;;17.10;47.80;18.20;100318.00;;;;5070069;28;20185;-51
2022/04/12 07:07:17;;;;;;;2.20;2.00;;;17.10;47.80;18.20;100306.00;;;;5069811;28;20189;-51
2022/04/12 07:09:43;;;;;;;1.80;1.70;;;17.10;47.90;18.20;100314.00;;;;5070299;28;20221;-52
2022/04/12 07:12:09;;;;;;;1.80;1.70;;;17.10;48.00;18.20;100310.00;;;;5070319;28;20878;-51
2022/04/12 07:14:35;;;;;;;2.17;1.80;;;17.10;48.70;18.20;100303.00;;;;5069748;28;20207;-51
2022/04/12 07:17:00;;;;;;;2.27;1.90;;;17.00;48.00;18.20;100308.00;;;;5069349;28;20181;-53
2022/04/12 07:19:26;;;;;;;3.77;1.80;;;17.00;48.00;18.20;100310.00;;;;5070002;28;20776;-51
2022/04/12 07:21:53;;;;;;;2.03;1.90;;;17.00;48.20;18.20;100316.00;;;;5069178;28;20240;-51
2022/04/12 07:24:18;;;;;;;1.90;1.80;;;17.10;48.50;18.20;100308.00;;;;5068842;28;20179;-50
2022/04/12 07:26:44;;;;;;;1.90;1.70;;;17.10;48.50;18.00;100312.00;;;;5068569;28;20178;-51
2022/04/12 07:29:10;;;;;;;3.93;1.73;;;17.00;48.40;18.20;100304.00;;;;5070808;28;20165;-51
2022/04/12 07:31:36;;;;;;;5.10;1.80;;;17.00;48.50;18.20;100313.00;;;;5070642;28;20208;-51
2022/04/12 07:34:02;;;;;;;1.90;1.80;;;17.10;48.60;18.20;100313.00;;;;5077132;28;20176;-52
2022/04/12 07:36:27;;;;;;;2.33;1.87;;;17.10;48.40;18.20;100313.00;;;;5069776;28;20748;-52
2022/04/12 07:38:53;;;;;;;1.80;1.70;;;17.10;48.60;18.20;100303.00;;;;5070219;28;20169;-52
2022/04/12 07:41:19;;;;;;;1.80;1.70;;;17.10;48.50;18.20;100302.00;;;;5070322;28;20197;-51
2022/04/12 07:43:46;;;;;;;2.43;2.00;;;17.00;48.50;18.20;100310.00;;;;5070026;28;20173;-51
2022/04/12 07:46:14;;;;;;;2.10;1.90;;;17.00;48.60;18.20;100305.00;;;;5069270;28;20209;-52
2022/04/12 07:48:41;;;;;;;2.93;1.90;;;17.00;48.80;18.20;100305.00;;;;5069410;28;20722;-51
2022/04/12 07:51:06;;;;;;;3.17;1.83;;;17.00;48.90;18.20;100297.00;;;;5069786;28;20278;-51
2022/04/12 07:53:32;;;;;;;3.13;1.90;;;17.00;49.00;18.20;100300.00;;;;5077075;28;20227;-52
2022/04/12 07:55:58;;;;;;;2.33;1.73;;;17.00;49.10;18.20;100300.00;;;;5074546;28;20205;-51
2022/04/12 07:58:24;;;;;;;2.10;1.90;;;17.00;49.20;18.20;100295.00;;;;5070241;28;20175;-51
2022/04/12 08:00:50;;;;;;;3.03;2.00;;;17.00;49.20;18.10;100291.00;;;;5069348;28;20214;-50
2022/04/12 08:03:18;;;;;;;1.90;1.80;;;17.00;49.20;18.20;100286.00;;;;5069496;28;20165;-51
2022/04/12 08:05:44;;;;;;;1.90;1.73;;;17.00;49.10;18.20;100280.00;;;;5069569;28;20197;-50
2022/04/12 08:08:09;;;;;;;2.00;1.90;;;17.00;49.10;18.10;100285.00;;;;5068887;28;20338;-51
2022/04/12 08:10:35;;;;;;;2.20;1.80;;;17.00;49.20;18.10;100288.00;;;;5069372;28;20670;-50
2022/04/12 08:13:01;;;;;;;3.00;1.90;;;17.00;49.20;18.20;100288.00;;;;5069103;28;20200;-51
2022/04/12 08:15:27;;;;;;;2.40;2.10;;;17.00;49.10;18.20;100290.00;;;;5069354;28;20172;-51
2022/04/12 08:17:52;;;;;;;2.10;1.93;;;17.00;49.20;18.20;100285.00;;;;5068943;28;20675;-52
2022/04/12 08:20:18;;;;;;;1.97;1.77;;;17.00;49.10;18.20;100282.00;;;;5068930;28;20198;-50
2022/04/12 08:22:44;;;;;;;2.67;1.80;;;17.00;49.40;18.20;100284.00;;;;5069294;28;20212;-51
2022/04/12 08:25:10;;;;;;;2.33;1.90;;;17.00;49.20;18.20;100285.00;;;;5069973;28;20759;-52
2022/04/12 08:27:39;;;;;;;2.17;1.90;;;17.00;49.20;18.20;100291.00;;;;5069557;28;20199;-51
2022/04/12 08:30:07;;;;;;;2.00;1.80;;;17.00;49.20;18.20;100295.00;;;;5068535;28;20182;-51
2022/04/12 08:32:35;;;;;;;1.93;1.83;;;17.00;49.30;18.20;100294.00;;;;5068636;28;20166;-51
2022/04/12 08:35:02;;;;;;;2.27;1.97;;;17.00;49.30;18.20;100307.00;;;;5067481;28;20159;-52
2022/04/12 08:37:28;;;;;;;2.17;1.97;;;17.00;49.90;18.20;100293.00;;;;5067388;28;20177;-51
2022/04/12 08:39:54;;;;;;;2.20;1.70;;;17.00;49.30;18.20;100292.00;;;;5066128;28;20537;-52
2022/04/12 08:42:21;;;;;;;4.57;1.90;;;17.10;49.60;18.20;100287.00;;;;4954918;28;20295;-51
2022/04/12 08:44:48;;;;;;;3.60;1.80;;;17.10;49.60;18.20;100279.00;;;;5069737;28;20254;-52
2022/04/12 08:47:18;;;;;;;6.20;1.90;;;17.10;50.30;18.20;100283.00;;;;5069218;28;20224;-51
2022/04/12 08:49:43;;;;;;;2.80;1.80;;;17.00;50.30;18.20;100277.00;;;;5069838;28;20630;-51
2022/04/12 08:52:11;;;;;;;3.40;1.87;;;17.10;50.40;18.20;100279.00;;;;5069990;28;20192;-51
2022/04/12 08:54:37;;;;;;;3.20;2.00;;;17.10;50.40;18.20;100282.00;;;;5069719;28;20245;-51
2022/04/12 08:57:04;;;;;;;2.40;1.70;;;17.10;50.30;18.20;100279.00;;;;5068529;28;20767;-51
2022/04/12 08:59:30;;;;;;;4.87;1.80;;;17.10;50.30;18.10;100279.00;;;;5068609;28;20183;-51
2022/04/12 09:01:57;;;;;;;3.03;1.90;;;17.10;50.30;18.20;100237.00;;;;5069258;28;20201;-51
2022/04/12 09:04:26;;;;;;;2.47;2.10;;;17.10;50.40;18.20;100282.00;;;;5075385;28;20251;-51
2022/04/12 09:06:57;;;;;;;4.20;2.07;;;17.10;50.60;18.10;100285.00;;;;5071261;28;20678;-50
2022/04/12 09:09:24;;;;;;;3.70;1.83;;;17.10;50.60;18.20;100276.00;;;;5058179;28;20719;-50
2022/04/12 09:12:06;;;;;;;2.67;1.80;;;17.10;50.80;18.20;100269.00;;;;5049635;28;20186;-53
2022/04/12 09:14:56;;;;;;;1.87;1.70;;;17.20;50.90;18.20;100286.00;;;;5048489;28;20206;-50
2022/04/12 09:17:35;;;;;;;2.70;2.00;;;17.20;50.80;18.20;100285.00;;;;5052665;28;20194;-51
2022/04/12 09:20:12;;;;;;;3.13;1.80;;;17.20;50.80;18.20;100277.00;;;;5049783;28;20198;-55
2022/04/12 09:22:38;;;;;;;2.00;1.80;;;17.30;51.10;18.20;100270.00;;;;5052231;28;20166;-52
2022/04/12 09:25:05;;;;;;;2.63;1.90;;;17.30;51.60;18.30;100262.00;;;;5060849;28;20201;-52
2022/04/12 09:27:32;;;;;;;2.40;2.10;;;17.40;52.30;18.30;100272.00;;;;5059323;28;20199;-56
2022/04/12 09:30:10;;;;;;;3.17;2.00;;;17.50;51.90;18.30;100264.00;;;;5059462;28;20186;-52
2022/04/12 09:32:56;;;;;;;2.63;1.77;;;17.50;51.90;18.40;100280.00;;;;5053634;28;20237;-51
2022/04/12 09:35:21;;;;;;;1.80;1.70;;;17.50;52.20;18.40;100277.00;;;;5063938;28;20173;-52
2022/04/12 09:37:47;;;;;;;2.00;1.60;;;17.60;52.00;18.40;100269.00;;;;5069576;28;20241;-52
2022/04/12 09:40:16;;;;;;;4.30;1.93;;;17.60;52.10;18.40;100272.00;;;;5069369;28;20189;-52
2022/04/12 09:42:57;;;;;;;1.97;1.67;;;17.60;51.90;18.50;100264.00;;;;5017856;28;20258;-51
2022/04/12 09:45:30;;;;;;;2.10;1.90;;;17.60;51.80;18.50;100254.00;;;;5091337;28;20160;-52
2022/04/12 09:48:02;;;;;;;2.10;1.90;;;17.70;51.70;18.50;100251.00;;;;5089246;28;20222;-50
2022/04/12 09:50:28;;;;;;;4.47;1.93;;;17.70;51.60;18.50;100251.00;;;;5090060;28;20244;-51
2022/04/12 09:52:56;;;;;;;5.27;1.90;;;17.70;51.40;18.60;100253.00;;;;5089112;28;20155;-51
2022/04/12 09:55:38;;;;;;;3.03;1.80;;;17.70;51.50;18.60;100248.00;;;;5089046;28;20310;-51
2022/04/12 09:58:14;;;;;;;3.07;2.13;;;17.70;51.50;18.60;100243.00;;;;5089519;28;20166;-51
2022/04/12 10:00:41;;;;;;;7.30;2.00;;;17.80;51.40;18.60;100248.00;;;;5089246;28;20217;-52
2022/04/12 10:03:10;;;;;;;2.03;1.80;;;17.80;51.50;18.70;100245.00;;;;5088986;28;20170;-52
2022/04/12 10:05:36;;;;;;;3.63;1.80;;;17.80;51.60;18.70;100234.00;;;;5089135;28;20165;-51
2022/04/12 10:08:04;;;;;;;3.10;2.00;;;17.90;51.70;18.70;100233.00;;;;5088780;28;20202;-51
2022/04/12 10:10:30;;;;;;;4.37;2.10;;;17.90;51.60;18.70;100234.00;;;;5096731;28;20197;-52
2022/04/12 10:12:56;;;;;;;2.77;1.80;;;18.00;51.80;18.80;100224.00;;;;5096039;28;20537;-51
2022/04/12 10:15:22;;;;;;;3.63;1.90;;;18.10;51.90;18.80;100227.00;;;;5095343;28;20746;-51
2022/04/12 10:17:52;;;;;;;2.30;1.90;;;18.00;52.10;18.80;100210.00;;;;5095499;28;20643;-51
2022/04/12 10:20:18;;;;;;;1.90;1.80;;;18.10;52.20;18.90;100220.00;;;;5096030;28;20188;-51
2022/04/12 10:22:47;;;;;;;2.10;1.80;;;18.10;51.90;18.90;100217.00;;;;5095743;28;20175;-51
2022/04/12 10:25:17;;;;;;;1.90;1.80;;;18.10;51.80;18.90;100208.00;;;;5094798;28;20198;-51
2022/04/12 10:27:43;;;;;;;3.70;1.90;;;18.10;51.70;18.90;100200.00;;;;5094037;28;20206;-51
2022/04/12 10:30:18;;;;;;;1.80;1.70;;;18.20;51.80;19.00;100195.00;;;;5095256;28;20618;-53
2022/04/12 10:33:15;;;;;;;1.57;1.47;;;18.20;51.80;19.00;100194.00;;;;5096374;28;20205;-52
2022/04/12 10:35:44;;;;;;;2.40;1.80;;;18.20;51.70;19.00;100200.00;;;;5078597;28;20176;-51
2022/04/12 10:38:18;;;;;;;2.97;1.83;;;18.20;51.60;19.00;100204.00;;;;5075012;28;20695;-52
2022/04/12 10:40:45;;;;;;;2.00;1.80;;;18.20;51.80;19.00;100198.00;;;;5037786;28;20204;-53
2022/04/12 10:43:11;;;;;;;2.67;1.80;;;18.20;51.90;19.10;100198.00;;;;5075167;28;20192;-51
2022/04/12 10:45:58;;;;;;;2.53;1.60;;;18.20;51.80;19.10;100202.00;;;;5095389;28;20186;-50
2022/04/12 10:48:26;;;;;;;7.03;1.90;;;18.30;52.00;19.10;100190.00;;;;5094061;28;20195;-51